createdAt,value
2017-12-10T00:00:22.929Z,35.6
2017-12-10T00:01:24.550Z,35.6
2017-12-10T00:02:26.446Z,35.6
2017-12-10T00:03:28.340Z,35.3
2017-12-10T00:04:30.234Z,35.4
2017-12-10T00:05:31.851Z,35.7
2017-12-10T00:06:33.747Z,35.6
2017-12-10T00:07:35.070Z,35.7
2017-12-10T00:08:37.004Z,35.4
2017-12-10T00:09:38.618Z,35.6
2017-12-10T00:10:39.936Z,35.6
2017-12-10T00:11:41.558Z,35.3
2017-12-10T00:12:42.898Z,35.7
2017-12-10T00:13:44.835Z,35.6
2017-12-10T00:14:46.734Z,35.4
2017-12-10T00:15:48.347Z,35.4
2017-12-10T00:16:50.241Z,35.3
2017-12-10T00:17:51.837Z,35.6
2017-12-10T00:18:53.434Z,35.7
2017-12-10T00:19:55.329Z,35.7
2017-12-10T00:20:57.221Z,35.8
2017-12-10T00:21:59.121Z,35.7
2017-12-10T00:23:00.736Z,35.7
2017-12-10T00:24:02.634Z,35.6
2017-12-10T00:25:04.528Z,35.7
2017-12-10T00:26:06.182Z,35.8
2017-12-10T00:27:07.801Z,35.6
2017-12-10T00:28:09.696Z,35.4
2017-12-10T00:29:11.593Z,35.5
2017-12-10T00:30:13.211Z,35.8
2017-12-10T00:31:14.831Z,35.6
2017-12-10T00:32:16.728Z,35.8
2017-12-10T00:33:18.327Z,35.7
2017-12-10T00:34:20.223Z,35.7
2017-12-10T00:35:22.118Z,35.7
2017-12-10T00:36:24.013Z,35.5
2017-12-10T00:37:25.633Z,35.8
2017-12-10T00:38:27.257Z,35.6
2017-12-10T00:39:29.153Z,35.7
2017-12-10T00:40:30.498Z,35.4
2017-12-10T00:41:32.401Z,35.5
2017-12-10T00:42:33.745Z,35.6
2017-12-10T00:43:34.785Z,35.6
2017-12-10T00:44:36.682Z,35.8
2017-12-10T00:45:38.305Z,35.7
2017-12-10T00:46:39.900Z,35.6
2017-12-10T00:47:41.796Z,35.7
2017-12-10T00:48:43.412Z,35.7
2017-12-10T00:49:45.042Z,35.8
2017-12-10T00:50:46.938Z,35.6
2017-12-10T00:51:48.537Z,35.4
2017-12-10T00:52:50.160Z,35.5
2017-12-10T00:53:52.053Z,35.6
2017-12-10T00:54:53.952Z,35.6
2017-12-10T00:55:55.848Z,35.3
2017-12-10T00:56:57.744Z,35.7
2017-12-10T00:57:59.638Z,35.3
2017-12-10T00:59:00.684Z,35.6
2017-12-10T01:00:02.580Z,35.3
2017-12-10T01:01:04.196Z,35.4
2017-12-10T01:02:05.814Z,35.6
2017-12-10T01:03:07.456Z,35.5
2017-12-10T01:04:09.102Z,35.6
2017-12-10T01:05:10.454Z,35.4
2017-12-10T01:06:12.353Z,35.3
2017-12-10T01:07:14.246Z,35.6
2017-12-10T01:08:16.143Z,35.3
2017-12-10T01:09:17.484Z,35.4
2017-12-10T01:10:19.381Z,35.6
2017-12-10T01:11:20.706Z,35.6
2017-12-10T01:12:21.751Z,35.6
2017-12-10T01:13:22.792Z,35.6
2017-12-10T01:14:23.833Z,35.5
2017-12-10T01:15:25.157Z,35.5
2017-12-10T01:16:26.773Z,35.4
2017-12-10T01:17:28.390Z,35.7
2017-12-10T01:18:30.291Z,35.7
2017-12-10T01:19:31.607Z,35.7
2017-12-10T01:20:33.500Z,35.8
2017-12-10T01:21:35.097Z,35.6
2017-12-10T01:22:36.996Z,35.6
2017-12-10T01:23:38.891Z,35.4
2017-12-10T01:24:40.795Z,35.4
2017-12-10T01:25:42.127Z,35.5
2017-12-10T01:26:43.747Z,35.6
2017-12-10T01:27:44.791Z,35.4
2017-12-10T01:28:46.412Z,35.4
2017-12-10T01:29:47.729Z,35.3
2017-12-10T01:30:49.623Z,35.7
2017-12-10T01:31:51.243Z,35.4
2017-12-10T01:32:53.141Z,35.4
2017-12-10T01:33:54.479Z,35.5
2017-12-10T01:34:56.374Z,35.6
2017-12-10T01:35:57.991Z,35.6
2017-12-10T01:36:59.611Z,35.4
2017-12-10T01:38:00.669Z,35.5
2017-12-10T01:39:02.265Z,35.5
2017-12-10T01:40:04.161Z,35.5
2017-12-10T01:41:05.765Z,35.4
2017-12-10T01:42:15.624Z,35.5
2017-12-10T01:43:17.276Z,35.5
2017-12-10T01:44:18.596Z,35.5
2017-12-10T01:45:19.938Z,35.3
2017-12-10T01:46:21.559Z,35.5
2017-12-10T01:47:23.453Z,35.5
2017-12-10T01:48:25.351Z,35.5
2017-12-10T01:49:27.246Z,35.4
2017-12-10T01:50:28.866Z,35.4
2017-12-10T01:51:30.465Z,35.5
2017-12-10T01:52:32.360Z,35.3
2017-12-10T01:53:34.258Z,35.3
2017-12-10T01:54:36.156Z,35.4
2017-12-10T01:55:37.787Z,35.3
2017-12-10T01:56:39.388Z,35.3
2017-12-10T01:57:41.008Z,35.4
2017-12-10T01:58:42.356Z,35.4
2017-12-10T01:59:43.996Z,35.4
2017-12-10T02:00:45.629Z,35.3
2017-12-10T02:01:47.249Z,35.5
2017-12-10T02:02:48.870Z,35.4
2017-12-10T02:03:50.493Z,35.6
2017-12-10T02:04:52.092Z,35.6
2017-12-10T02:05:53.991Z,35.5
2017-12-10T02:06:55.889Z,35.6
2017-12-10T02:07:57.211Z,35.4
2017-12-10T02:08:58.826Z,35.4
2017-12-10T02:10:00.425Z,35.4
2017-12-10T02:11:01.798Z,35.5
2017-12-10T02:12:03.711Z,35.4
2017-12-10T02:13:05.624Z,35.5
2017-12-10T02:14:06.967Z,35.5
2017-12-10T02:15:08.587Z,35.4
2017-12-10T02:16:10.188Z,35.4
2017-12-10T02:17:12.085Z,35.4
2017-12-10T02:18:13.977Z,35.5
2017-12-10T02:19:15.595Z,35.5
2017-12-10T02:20:17.216Z,35.5
2017-12-10T02:21:19.113Z,35.4
2017-12-10T02:22:20.761Z,35.5
2017-12-10T02:23:22.103Z,35.3
2017-12-10T02:24:23.706Z,35.5
2017-12-10T02:25:25.599Z,35.5
2017-12-10T02:26:27.198Z,35.4
2017-12-10T02:27:28.818Z,35.5
2017-12-10T02:28:30.436Z,35.4
2017-12-10T02:29:32.033Z,35.3
2017-12-10T02:30:33.380Z,35.5
2017-12-10T02:31:35.276Z,35.4
2017-12-10T02:32:36.900Z,35.4
2017-12-10T02:33:38.496Z,35.4
2017-12-10T02:34:40.400Z,35.4
2017-12-10T02:35:41.796Z,35.3
2017-12-10T02:36:43.692Z,35.3
2017-12-10T02:37:45.599Z,35.4
2017-12-10T02:38:46.934Z,35.3
2017-12-10T02:39:48.823Z,35.3
2017-12-10T02:40:50.450Z,35.3
2017-12-10T02:41:51.793Z,35.4
2017-12-10T02:42:53.734Z,35.4
2017-12-10T02:43:55.074Z,35.3
2017-12-10T02:44:56.700Z,35.5
2017-12-10T02:45:58.591Z,35.3
2017-12-10T02:47:00.487Z,35.2
2017-12-10T02:48:02.411Z,35.2
2017-12-10T02:49:04.028Z,35.3
2017-12-10T02:50:05.931Z,35.3
2017-12-10T02:51:07.244Z,35.2
2017-12-10T02:52:09.142Z,35.5
2017-12-10T02:53:10.484Z,35.5
2017-12-10T02:54:12.383Z,35.5
2017-12-10T02:55:13.983Z,35.4
2017-12-10T02:56:15.305Z,35.4
2017-12-10T02:57:17.202Z,35.3
2017-12-10T02:58:19.099Z,35.2
2017-12-10T02:59:20.722Z,35.4
2017-12-10T03:00:22.619Z,35.4
2017-12-10T03:01:23.662Z,35.5
2017-12-10T03:02:25.559Z,35.3
2017-12-10T03:03:27.177Z,35.5
2017-12-10T03:04:28.800Z,35.4
2017-12-10T03:05:30.418Z,35.3
2017-12-10T03:06:32.038Z,35.3
2017-12-10T03:07:33.938Z,35.2
2017-12-10T03:08:35.834Z,35.2
2017-12-10T03:09:37.438Z,35.3
2017-12-10T03:10:38.775Z,35.1
2017-12-10T03:11:40.377Z,35.2
2017-12-10T03:12:41.998Z,35.2
2017-12-10T03:13:43.616Z,35.2
2017-12-10T03:14:45.524Z,35.2
2017-12-10T03:15:47.424Z,35.2
2017-12-10T03:16:48.752Z,35.3
2017-12-10T03:17:50.347Z,35.1
2017-12-10T03:18:52.247Z,35.1
2017-12-10T03:19:54.157Z,35.4
2017-12-10T03:20:56.041Z,35.2
2017-12-10T03:21:57.380Z,35.3
2017-12-10T03:22:59.273Z,35.3
2017-12-10T03:24:00.894Z,35.2
2017-12-10T03:25:02.217Z,35.3
2017-12-10T03:26:03.534Z,35.3
2017-12-10T03:27:05.152Z,35.1
2017-12-10T03:28:07.048Z,35.3
2017-12-10T03:31:18.867Z,35.2
2017-12-10T03:32:20.484Z,35.5
2017-12-10T03:33:21.832Z,35.4
2017-12-10T03:34:23.729Z,35.3
2017-12-10T03:35:25.329Z,35.2
2017-12-10T03:36:26.943Z,35.2
2017-12-10T03:37:28.839Z,35.3
2017-12-10T03:38:30.736Z,35.3
2017-12-10T03:39:32.336Z,35.4
2017-12-10T03:40:34.234Z,35.1
2017-12-10T03:41:35.576Z,35.1
2017-12-10T03:42:36.896Z,35.3
2017-12-10T03:43:38.240Z,35.2
2017-12-10T03:44:39.561Z,35.3
2017-12-10T03:45:41.453Z,35.3
2017-12-10T03:46:43.071Z,35.4
2017-12-10T03:47:44.691Z,35.2
2017-12-10T03:48:46.309Z,35.3
2017-12-10T03:49:47.629Z,35.2
2017-12-10T03:50:48.973Z,35.2
2017-12-10T03:51:50.589Z,35.1
2017-12-10T03:52:52.186Z,35.3
2017-12-10T03:53:53.783Z,35.3
2017-12-10T03:54:55.381Z,35.3
2017-12-10T03:55:57.276Z,35.3
2017-12-10T03:56:58.597Z,35.2
2017-12-10T03:58:00.216Z,35.2
2017-12-10T03:59:01.832Z,35.2
2017-12-10T04:00:03.451Z,35.2
2017-12-10T04:01:05.050Z,35.2
2017-12-10T04:02:06.946Z,35.2
2017-12-10T04:03:08.571Z,35.1
2017-12-10T04:04:10.187Z,35.3
2017-12-10T04:05:12.082Z,35.3
2017-12-10T04:06:13.400Z,35.1
2017-12-10T04:07:15.295Z,35.5
2017-12-10T04:08:16.659Z,35.1
2017-12-10T04:09:18.555Z,35.4
2017-12-10T04:10:20.176Z,35.1
2017-12-10T04:11:21.856Z,35.3
2017-12-10T04:12:23.200Z,35.2
2017-12-10T04:13:24.880Z,35.3
2017-12-10T04:14:26.778Z,34.9
2017-12-10T04:15:28.672Z,34.9
2017-12-10T04:16:29.992Z,35.1
2017-12-10T04:17:31.892Z,35.2
2017-12-10T04:18:33.513Z,35.1
2017-12-10T04:19:34.864Z,35.4
2017-12-10T04:20:36.482Z,35.4
2017-12-10T04:21:38.102Z,35.3
2017-12-10T04:22:39.724Z,34.9
2017-12-10T04:23:41.661Z,35.4
2017-12-10T04:24:43.034Z,35.5
2017-12-10T04:25:44.654Z,35.3
2017-12-10T04:26:46.274Z,35
2017-12-10T04:27:47.894Z,35.3
2017-12-10T04:28:49.788Z,35.4
2017-12-10T04:29:51.688Z,34.9
2017-12-10T04:30:53.304Z,35.3
2017-12-10T04:31:54.644Z,34.9
2017-12-10T04:32:56.540Z,35.3
2017-12-10T04:33:58.450Z,34.9
2017-12-10T04:35:00.046Z,35
2017-12-10T04:36:01.943Z,35.3
2017-12-10T04:37:03.563Z,35.3
2017-12-10T04:38:05.181Z,34.9
2017-12-10T04:39:06.804Z,35.3
2017-12-10T04:40:08.471Z,35.3
2017-12-10T04:41:10.092Z,35.2
2017-12-10T04:42:11.988Z,35.2
2017-12-10T04:43:13.605Z,35.1
2017-12-10T04:44:14.943Z,35.2
2017-12-10T04:45:16.563Z,35.3
2017-12-10T04:46:17.882Z,35.1
2017-12-10T04:47:19.538Z,35.3
2017-12-10T04:48:20.860Z,35.3
2017-12-10T04:49:22.755Z,35.2
2017-12-10T04:50:24.358Z,35.2
2017-12-10T04:51:26.255Z,35.2
2017-12-10T04:52:27.853Z,35.2
2017-12-10T04:53:29.470Z,35.3
2017-12-10T04:54:31.366Z,35.3
2017-12-10T04:55:32.988Z,35.1
2017-12-10T04:56:34.603Z,35.2
2017-12-10T04:57:36.200Z,35.3
2017-12-10T04:58:38.096Z,35.4
2017-12-10T04:59:39.994Z,35.1
2017-12-10T05:00:41.614Z,35.2
2017-12-10T05:01:42.957Z,35.3
2017-12-10T05:02:44.570Z,35.3
2017-12-10T05:03:46.464Z,35.2
2017-12-10T05:04:48.372Z,35.2
2017-12-10T05:05:49.413Z,35.2
2017-12-10T05:06:50.757Z,35.3
2017-12-10T05:07:52.097Z,35.3
2017-12-10T05:08:53.417Z,35.2
2017-12-10T05:09:54.736Z,35.4
2017-12-10T05:10:56.634Z,35.3
2017-12-10T05:11:58.252Z,35.3
2017-12-10T05:12:59.866Z,35.2
2017-12-10T05:14:01.185Z,35.2
2017-12-10T05:15:02.809Z,35.3
2017-12-10T05:16:04.145Z,35.2
2017-12-10T05:17:06.040Z,35.3
2017-12-10T05:18:07.637Z,35.2
2017-12-10T05:19:09.254Z,35.3
2017-12-10T05:20:10.875Z,35.4
2017-12-10T05:21:12.472Z,35.4
2017-12-10T05:22:14.093Z,35.2
2017-12-10T05:23:15.988Z,35.2
2017-12-10T05:24:17.886Z,34.9
2017-12-10T05:25:19.786Z,35.3
2017-12-10T05:26:21.409Z,35.4
2017-12-10T05:27:23.295Z,35.2
2017-12-10T05:28:24.965Z,35.4
2017-12-10T05:29:26.284Z,35.2
2017-12-10T05:30:28.184Z,35.2
2017-12-10T05:31:29.800Z,35.2
2017-12-10T05:32:31.399Z,35.2
2017-12-10T05:33:33.021Z,35.1
2017-12-10T05:34:34.369Z,35.2
2017-12-10T05:35:35.689Z,35.2
2017-12-10T05:36:37.309Z,35.3
2017-12-10T05:37:38.683Z,35.2
2017-12-10T05:38:40.007Z,35.2
2017-12-10T05:39:41.621Z,35.2
2017-12-10T05:40:42.938Z,35.3
2017-12-10T05:41:44.556Z,35.2
2017-12-10T05:42:46.465Z,35.2
2017-12-10T05:43:48.085Z,35.2
2017-12-10T05:44:49.979Z,35.5
2017-12-10T05:45:51.301Z,35.6
2017-12-10T05:46:53.197Z,35.4
2017-12-10T05:47:54.816Z,35.5
2017-12-10T05:48:56.436Z,35.5
2017-12-10T05:49:58.333Z,35.4
2017-12-10T05:50:59.677Z,35.4
2017-12-10T05:52:01.292Z,35.3
2017-12-10T05:53:02.637Z,35.5
2017-12-10T05:54:04.533Z,35.4
2017-12-10T05:55:05.873Z,35.5
2017-12-10T05:56:07.555Z,35.4
2017-12-10T05:57:09.168Z,35.3
2017-12-10T05:58:11.067Z,35.4
2017-12-10T05:59:12.683Z,35.2
2017-12-10T06:00:14.024Z,35.2
2017-12-10T06:01:15.642Z,35.6
2017-12-10T06:02:17.241Z,35.5
2017-12-10T06:03:18.861Z,35.4
2017-12-10T06:04:20.757Z,35.6
2017-12-10T06:05:22.652Z,35.3
2017-12-10T06:06:24.272Z,35.4
2017-12-10T06:07:25.892Z,35.5
2017-12-10T06:08:27.786Z,35.1
2017-12-10T06:09:29.401Z,35.4
2017-12-10T06:10:30.740Z,35.4
2017-12-10T06:11:32.636Z,35.2
2017-12-10T06:12:33.982Z,35.5
2017-12-10T06:13:35.583Z,35.5
2017-12-10T06:14:37.203Z,35.3
2017-12-10T06:15:39.102Z,35.5
2017-12-10T06:16:40.727Z,35.6
2017-12-10T06:17:42.316Z,35.4
2017-12-10T06:18:44.211Z,35.5
2017-12-10T06:19:46.107Z,35.5
2017-12-10T06:20:47.729Z,35.4
2017-12-10T06:21:49.384Z,35.5
2017-12-10T06:22:50.707Z,35.6
2017-12-10T06:23:52.327Z,35.6
2017-12-10T06:24:53.925Z,35.6
2017-12-10T06:25:54.968Z,35.7
2017-12-10T06:26:56.863Z,35.4
2017-12-10T06:27:58.482Z,35.6
2017-12-10T06:29:00.100Z,35.5
2017-12-10T06:30:01.732Z,35.5
2017-12-10T06:31:03.342Z,35.5
2017-12-10T06:32:04.958Z,35.3
2017-12-10T06:33:06.854Z,35.3
2017-12-10T06:34:08.452Z,35.4
2017-12-10T06:35:10.070Z,35.4
2017-12-10T06:36:11.966Z,35.3
2017-12-10T06:37:13.588Z,35.3
2017-12-10T06:38:15.269Z,35.3
2017-12-10T06:39:17.165Z,35.3
2017-12-10T06:40:18.567Z,35.3
2017-12-10T06:41:20.504Z,35.3
2017-12-10T06:42:22.404Z,35.6
2017-12-10T06:43:24.300Z,35.4
2017-12-10T06:44:26.197Z,35.5
2017-12-10T06:45:28.092Z,35.3
2017-12-10T06:46:29.988Z,35.4
2017-12-10T06:47:31.585Z,35.6
2017-12-10T06:48:33.200Z,35.6
2017-12-10T06:49:35.100Z,35.5
2017-12-10T06:50:36.718Z,35.3
2017-12-10T06:51:38.615Z,35.5
2017-12-10T06:52:40.234Z,35.4
2017-12-10T06:53:41.857Z,35.2
2017-12-10T06:54:43.457Z,35.4
2017-12-10T06:55:44.803Z,35.4
2017-12-10T06:56:46.421Z,35.6
2017-12-10T06:57:48.040Z,35.6
2017-12-10T06:58:49.935Z,35.4
2017-12-10T06:59:51.533Z,35.6
2017-12-10T07:00:53.134Z,35.5
2017-12-10T07:01:55.029Z,35.4
2017-12-10T07:02:56.927Z,35.5
2017-12-10T07:03:58.272Z,35.6
2017-12-10T07:04:59.891Z,35.5
2017-12-10T07:06:01.789Z,35.5
2017-12-10T07:07:03.388Z,35.4
2017-12-10T07:08:05.004Z,35.5
2017-12-10T07:09:06.623Z,35.3
2017-12-10T07:10:08.242Z,35.5
2017-12-10T07:11:09.012Z,35.5
2017-12-10T07:12:10.635Z,35.5
2017-12-10T07:13:11.957Z,35.5
2017-12-10T07:14:13.278Z,35.5
2017-12-10T07:15:14.897Z,35.4
2017-12-10T07:16:16.520Z,35.4
2017-12-10T07:17:17.839Z,35.6
2017-12-10T07:18:19.437Z,35.7
2017-12-10T07:19:21.334Z,35.6
2017-12-10T07:20:23.264Z,35.4
2017-12-10T07:21:24.886Z,35.4
2017-12-10T07:22:26.506Z,35.6
2017-12-10T07:23:28.109Z,35.6
2017-12-10T07:24:30.005Z,35.6
2017-12-10T07:25:31.603Z,35.6
2017-12-10T07:26:33.267Z,35.7
2017-12-10T07:27:34.307Z,35.8
2017-12-10T07:28:36.199Z,35.5
2017-12-10T07:29:37.818Z,35.6
2017-12-10T07:30:39.441Z,35.3
2017-12-10T07:31:41.043Z,35.7
2017-12-10T07:32:42.088Z,35.6
2017-12-10T07:33:43.688Z,35.3
2017-12-10T07:34:45.584Z,35.6
2017-12-10T07:35:46.922Z,35.7
2017-12-10T07:36:48.828Z,35.6
2017-12-10T07:37:50.169Z,35.7
2017-12-10T07:38:52.065Z,35.6
2017-12-10T07:39:53.663Z,35.7
2017-12-10T07:40:54.983Z,35.7
2017-12-10T07:41:56.581Z,35.6
2017-12-10T07:42:57.908Z,35.6
2017-12-10T07:43:59.507Z,35.7
2017-12-10T07:45:01.173Z,35.7
2017-12-10T07:46:03.123Z,35.7
2017-12-10T07:47:04.740Z,35.8
2017-12-10T07:48:06.390Z,35.7
2017-12-10T07:49:07.714Z,35.4
2017-12-10T07:50:09.314Z,35.7
2017-12-10T07:51:10.656Z,35.7
2017-12-10T07:52:12.281Z,35.8
2017-12-10T07:53:13.599Z,35.7
2017-12-10T07:54:15.219Z,35.6
2017-12-10T07:55:17.117Z,35.7
2017-12-10T07:56:18.444Z,35.8
2017-12-10T07:57:20.341Z,35.7
2017-12-10T07:58:21.940Z,35.8
2017-12-10T07:59:23.298Z,35.8
2017-12-10T08:00:24.916Z,35.7
2017-12-10T08:01:26.819Z,35.6
2017-12-10T08:02:28.433Z,35.6
2017-12-10T08:03:29.772Z,35.6
2017-12-10T08:04:31.368Z,35.5
2017-12-10T08:05:32.987Z,35.5
2017-12-10T08:06:34.945Z,35.3
2017-12-10T08:07:36.630Z,35.5
2017-12-10T08:08:37.977Z,35.5
2017-12-10T08:09:39.577Z,35.3
2017-12-10T08:10:41.476Z,35.4
2017-12-10T08:11:43.420Z,35.3
2017-12-10T08:12:45.319Z,35.2
2017-12-10T08:13:46.383Z,35.1
2017-12-10T08:14:47.435Z,35.1
2017-12-10T08:15:49.336Z,35.1
2017-12-10T08:16:50.936Z,35.2
2017-12-10T08:17:52.280Z,35.2
2017-12-10T08:18:53.890Z,35.1
2017-12-10T08:19:55.214Z,35.3
2017-12-10T08:20:56.835Z,35.1
2017-12-10T08:21:58.450Z,35.3
2017-12-10T08:22:59.793Z,35.2
2017-12-10T08:24:01.691Z,35
2017-12-10T08:25:03.315Z,35.3
2017-12-10T08:26:05.212Z,35.1
2017-12-10T08:27:06.561Z,35.1
2017-12-10T08:28:07.908Z,35.2
2017-12-10T08:29:09.811Z,35.1
2017-12-10T08:30:11.434Z,35.1
2017-12-10T08:31:13.062Z,35.3
2017-12-10T08:32:14.370Z,35.3
2017-12-10T08:33:15.712Z,35
2017-12-10T08:34:17.614Z,35.1
2017-12-10T08:35:19.235Z,35.1
2017-12-10T08:36:20.856Z,35
2017-12-10T08:37:22.754Z,35.3
2017-12-10T08:38:24.361Z,35.1
2017-12-10T08:39:26.257Z,35.3
2017-12-10T08:40:27.874Z,35.2
2017-12-10T08:41:28.916Z,35
2017-12-10T08:42:29.960Z,35.4
2017-12-10T08:43:31.582Z,35
2017-12-10T08:44:33.180Z,35.2
2017-12-10T08:45:34.806Z,35
2017-12-10T08:46:36.146Z,35
2017-12-10T08:47:38.047Z,35.3
2017-12-10T08:48:39.947Z,35.1
2017-12-10T08:49:41.849Z,35.5
2017-12-10T08:50:43.469Z,35
2017-12-10T08:51:45.368Z,34.9
2017-12-10T08:52:46.963Z,35.2
2017-12-10T08:53:48.586Z,35.3
2017-12-10T08:54:49.636Z,35.3
2017-12-10T08:55:51.237Z,35
2017-12-10T08:56:52.835Z,35.3
2017-12-10T08:57:54.459Z,35.2
2017-12-10T08:58:56.065Z,35.3
2017-12-10T08:59:57.965Z,34.8
2017-12-10T09:00:59.588Z,35.2
2017-12-10T09:02:01.480Z,35.2
2017-12-10T09:03:03.104Z,34.9
2017-12-10T09:04:04.718Z,34.8
2017-12-10T09:05:06.341Z,34.9
2017-12-10T09:06:07.689Z,35.2
2017-12-10T09:07:09.584Z,35.2
2017-12-10T09:08:11.481Z,35.4
2017-12-10T09:09:12.801Z,35.1
2017-12-10T09:10:14.419Z,35
2017-12-10T09:11:16.356Z,34.9
2017-12-10T09:12:17.394Z,35
2017-12-10T09:13:18.990Z,35.3
2017-12-10T09:14:20.596Z,35
2017-12-10T09:15:22.488Z,35.1
2017-12-10T09:16:24.387Z,35
2017-12-10T09:17:26.003Z,35.2
2017-12-10T09:18:27.899Z,34.9
2017-12-10T09:19:29.515Z,34.9
2017-12-10T09:20:31.133Z,34.7
2017-12-10T09:21:33.028Z,35.1
2017-12-10T09:22:34.356Z,34.7
2017-12-10T09:23:35.977Z,34.9
2017-12-10T09:24:37.876Z,35.1
2017-12-10T09:25:39.219Z,35.1
2017-12-10T09:26:41.116Z,34.9
2017-12-10T09:27:43.011Z,34.8
2017-12-10T09:28:44.609Z,34.9
2017-12-10T09:29:45.933Z,34.9
2017-12-10T09:30:47.552Z,34.9
2017-12-10T09:31:48.881Z,34.8
2017-12-10T09:32:50.493Z,34.8
2017-12-10T09:33:52.401Z,34.8
2017-12-10T09:34:54.302Z,34.9
2017-12-10T09:35:55.896Z,34.8
2017-12-10T09:36:57.800Z,34.9
2017-12-10T09:37:59.392Z,35
2017-12-10T09:39:01.015Z,35
2017-12-10T09:40:02.354Z,34.8
2017-12-10T09:41:03.676Z,34.8
2017-12-10T09:42:05.011Z,34.9
2017-12-10T09:43:06.635Z,35
2017-12-10T09:44:08.237Z,34.8
2017-12-10T09:45:09.855Z,35
2017-12-10T09:46:11.753Z,34.9
2017-12-10T09:47:13.098Z,34.7
2017-12-10T09:48:14.717Z,34.7
2017-12-10T09:49:16.339Z,34.9
2017-12-10T09:50:17.682Z,34.7
2017-12-10T09:51:19.291Z,35
2017-12-10T09:52:20.916Z,34.9
2017-12-10T09:53:22.537Z,34.8
2017-12-10T09:54:24.437Z,35
2017-12-10T09:55:26.060Z,34.9
2017-12-10T09:56:27.964Z,34.8
2017-12-10T09:57:29.308Z,34.8
2017-12-10T09:58:31.208Z,35
2017-12-10T09:59:33.105Z,35
2017-12-10T10:00:34.726Z,34.7
2017-12-10T10:01:36.627Z,34.9
2017-12-10T10:02:38.527Z,35
2017-12-10T10:03:40.123Z,35
2017-12-10T10:04:41.728Z,35
2017-12-10T10:05:43.628Z,35
2017-12-10T10:06:45.279Z,34.8
2017-12-10T10:07:47.177Z,34.9
2017-12-10T10:08:48.800Z,34.9
2017-12-10T10:09:50.700Z,34.7
2017-12-10T10:10:52.327Z,34.8
2017-12-10T10:11:53.943Z,35
2017-12-10T10:12:55.560Z,35
2017-12-10T10:13:56.886Z,35
2017-12-10T10:14:58.206Z,34.8
2017-12-10T10:16:00.104Z,35
2017-12-10T10:17:01.725Z,35
2017-12-10T10:18:03.348Z,34.9
2017-12-10T10:19:04.949Z,34.9
2017-12-10T10:20:06.575Z,35
2017-12-10T10:21:07.924Z,34.8
2017-12-10T10:22:09.549Z,35
2017-12-10T10:23:11.151Z,35
2017-12-10T10:24:12.471Z,34.8
2017-12-10T10:25:14.090Z,34.9
2017-12-10T10:26:15.432Z,34.9
2017-12-10T10:27:16.753Z,34.9
2017-12-10T10:28:18.083Z,34.9
2017-12-10T10:29:19.701Z,34.9
2017-12-10T10:30:21.601Z,34.8
2017-12-10T10:31:23.221Z,34.7
2017-12-10T10:32:25.119Z,34.8
2017-12-10T10:33:26.716Z,34.9
2017-12-10T10:34:28.344Z,34.9
2017-12-10T10:35:29.958Z,34.9
2017-12-10T10:36:31.579Z,34.9
2017-12-10T10:37:33.200Z,35
2017-12-10T10:38:35.099Z,34.8
2017-12-10T10:39:36.720Z,34.9
2017-12-10T10:40:38.342Z,34.8
2017-12-10T10:41:40.241Z,34.8
2017-12-10T10:42:41.584Z,34.9
2017-12-10T10:43:42.630Z,34.7
2017-12-10T10:44:44.252Z,34.9
2017-12-10T10:45:45.577Z,34.9
2017-12-10T10:46:47.479Z,34.8
2017-12-10T10:47:49.072Z,34.8
2017-12-10T10:48:50.973Z,34.9
2017-12-10T10:49:52.291Z,34.8
2017-12-10T10:50:53.612Z,34.9
2017-12-10T10:51:55.237Z,35
2017-12-10T10:52:56.583Z,34.8
2017-12-10T10:53:58.483Z,34.8
2017-12-10T10:54:59.821Z,34.9
2017-12-10T10:56:01.717Z,34.8
2017-12-10T10:57:03.316Z,34.8
2017-12-10T10:58:04.939Z,34.9
2017-12-10T10:59:06.260Z,34.8
2017-12-10T11:00:07.885Z,34.8
2017-12-10T11:01:09.211Z,35
2017-12-10T11:02:11.107Z,34.9
2017-12-10T11:03:13.003Z,35
2017-12-10T11:04:14.322Z,34.9
2017-12-10T11:05:16.223Z,35
2017-12-10T11:06:18.118Z,34.9
2017-12-10T11:07:19.162Z,34.8
2017-12-10T11:08:20.782Z,34.7
2017-12-10T11:09:21.826Z,34.6
2017-12-10T11:10:23.425Z,34.8
2017-12-10T11:11:25.049Z,35
2017-12-10T11:12:26.668Z,35
2017-12-10T11:13:28.566Z,34.7
2017-12-10T11:14:30.194Z,34.7
2017-12-10T11:15:31.240Z,34.7
2017-12-10T11:16:33.137Z,34.7
2017-12-10T11:17:34.748Z,35
2017-12-10T11:18:36.127Z,34.7
2017-12-10T11:19:37.725Z,34.8
2017-12-10T11:20:39.347Z,34.6
2017-12-10T11:21:41.244Z,34.6
2017-12-10T11:22:42.862Z,34.7
2017-12-10T11:23:44.187Z,35
2017-12-10T11:24:45.787Z,35
2017-12-10T11:25:47.412Z,34.8
2017-12-10T11:26:49.355Z,34.8
2017-12-10T11:27:51.253Z,35
2017-12-10T11:28:52.877Z,34.7
2017-12-10T11:29:54.204Z,34.7
2017-12-10T11:30:55.804Z,34.7
2017-12-10T11:31:57.410Z,34.7
2017-12-10T11:32:58.729Z,34.6
2017-12-10T11:34:00.348Z,34.8
2017-12-10T11:35:01.673Z,35
2017-12-10T11:36:03.016Z,34.6
2017-12-10T11:37:04.405Z,34.9
2017-12-10T11:38:06.306Z,34.6
2017-12-10T11:39:07.928Z,34.7
2017-12-10T11:40:09.555Z,34.8
2017-12-10T11:41:10.616Z,34.7
2017-12-10T11:42:12.239Z,34.7
2017-12-10T11:43:13.288Z,34.6
2017-12-10T11:44:15.187Z,34.8
2017-12-10T11:45:16.787Z,35
2017-12-10T11:46:18.408Z,34.9
2017-12-10T11:47:19.455Z,34.8
2017-12-10T11:48:21.076Z,35.1
2017-12-10T11:49:22.124Z,34.7
2017-12-10T11:50:24.022Z,34.9
2017-12-10T11:51:25.622Z,35
2017-12-10T11:52:27.521Z,34.6
2017-12-10T11:53:29.415Z,35
2017-12-10T11:54:30.461Z,34.6
2017-12-10T11:55:32.071Z,34.5
2017-12-10T11:56:33.693Z,35
2017-12-10T11:57:34.734Z,34.8
2017-12-10T11:58:36.076Z,34.9
2017-12-10T11:59:37.695Z,34.7
2017-12-10T12:00:39.597Z,35
2017-12-10T12:01:41.196Z,34.5
2017-12-10T12:02:42.540Z,34.9
2017-12-10T12:03:44.216Z,34.7
2017-12-10T12:04:46.157Z,34.6
2017-12-10T12:05:48.048Z,35
2017-12-10T12:06:49.950Z,34.8
2017-12-10T12:07:51.546Z,34.8
2017-12-10T12:08:53.162Z,34.6
2017-12-10T12:09:54.494Z,34.7
2017-12-10T12:10:55.814Z,34.5
2017-12-10T12:11:57.431Z,35
2017-12-10T12:12:59.055Z,35
2017-12-10T12:14:00.675Z,34.9
2017-12-10T12:15:02.571Z,35
2017-12-10T12:16:03.890Z,34.6
2017-12-10T12:17:05.508Z,35
2017-12-10T12:18:07.411Z,34.9
2017-12-10T12:19:09.309Z,34.7
2017-12-10T12:20:10.375Z,34.6
2017-12-10T12:21:12.271Z,34.8
2017-12-10T12:22:14.167Z,34.5
2017-12-10T12:23:15.785Z,34.6
2017-12-10T12:24:17.688Z,34.5
2017-12-10T12:25:19.311Z,34.5
2017-12-10T12:26:20.932Z,34.5
2017-12-10T12:27:22.826Z,34.9
2017-12-10T12:28:24.450Z,34.9
2017-12-10T12:29:25.764Z,34.8
2017-12-10T12:30:27.668Z,34.8
2017-12-10T12:31:29.290Z,34.8
2017-12-10T12:32:30.886Z,34.7
2017-12-10T12:33:32.485Z,34.6
2017-12-10T12:34:33.558Z,34.9
2017-12-10T12:35:34.873Z,34.8
2017-12-10T12:36:36.493Z,34.7
2017-12-10T12:37:38.390Z,34.9
2017-12-10T12:38:40.017Z,34.9
2017-12-10T12:39:41.637Z,34.7
2017-12-10T12:40:43.262Z,34.7
2017-12-10T12:41:44.866Z,34.6
2017-12-10T12:42:46.762Z,34.9
2017-12-10T12:43:48.380Z,34.8
2017-12-10T12:44:50.316Z,34.9
2017-12-10T12:45:51.639Z,34.5
2017-12-10T12:46:52.979Z,34.6
2017-12-10T12:47:54.600Z,34.5
2017-12-10T12:48:56.225Z,34.8
2017-12-10T12:49:58.119Z,34.9
2017-12-10T12:51:00.020Z,34.6
2017-12-10T12:52:01.342Z,34.9
2017-12-10T12:53:03.239Z,34.6
2017-12-10T12:54:04.559Z,34.6
2017-12-10T12:55:05.896Z,34.6
2017-12-10T12:56:07.507Z,34.5
2017-12-10T12:57:08.850Z,34.7
2017-12-10T12:58:10.746Z,34.6
2017-12-10T12:59:12.090Z,34.9
2017-12-10T13:00:13.725Z,34.9
2017-12-10T13:01:15.623Z,34.6
2017-12-10T13:02:16.970Z,34.7
2017-12-10T13:03:18.588Z,34.9
2017-12-10T13:04:19.933Z,34.8
2017-12-10T13:05:21.262Z,34.6
2017-12-10T13:06:23.157Z,34.5
2017-12-10T13:07:25.055Z,34.6
2017-12-10T13:08:26.672Z,34.8
2017-12-10T13:09:28.295Z,34.9
2017-12-10T13:10:29.920Z,34.6
2017-12-10T13:11:31.542Z,34.6
2017-12-10T13:12:33.156Z,34.7
2017-12-10T13:13:34.776Z,34.7
2017-12-10T13:14:36.121Z,35
2017-12-10T13:15:38.023Z,34.7
2017-12-10T13:16:39.919Z,34.8
2017-12-10T13:17:41.520Z,34.8
2017-12-10T13:18:43.139Z,34.6
2017-12-10T13:19:44.760Z,34.5
2017-12-10T13:20:46.660Z,34.7
2017-12-10T13:21:48.282Z,34.6
2017-12-10T13:22:49.905Z,34.5
2017-12-10T13:23:51.504Z,34.7
2017-12-10T13:24:53.400Z,34.7
2017-12-10T13:25:55.020Z,34.5
2017-12-10T13:26:56.337Z,34.6
2017-12-10T13:27:58.236Z,34.6
2017-12-10T13:28:59.832Z,34.6
2017-12-10T13:30:01.459Z,34.8
2017-12-10T13:31:03.085Z,34.6
2017-12-10T13:32:04.710Z,34.7
2017-12-10T13:33:06.327Z,34.7
2017-12-10T13:34:07.727Z,34.6
2017-12-10T13:35:09.347Z,34.6
2017-12-10T13:36:11.243Z,34.7
2017-12-10T13:37:13.139Z,34.5
2017-12-10T13:38:14.766Z,34.8
2017-12-10T13:39:16.755Z,34.7
2017-12-10T13:40:18.652Z,34.8
2017-12-10T13:41:20.550Z,34.7
2017-12-10T13:42:22.445Z,34.8
2017-12-10T13:43:23.764Z,34.8
2017-12-10T13:44:25.384Z,34.7
2017-12-10T13:45:27.003Z,34.8
2017-12-10T13:46:28.619Z,34.7